sensor_id;sensor_type;location;lat;lon;timestamp;pressure;altitude;pressure_sealevel;temperature;humidity
7966;BME280;4028;43.272;26.932;2023-02-18T00:01:16;99612.31;;;9.69;56.95
7966;BME280;4028;43.272;26.932;2023-02-18T00:03:43;99615.81;;;9.70;56.70
7966;BME280;4028;43.272;26.932;2023-02-18T00:06:29;99601.75;;;9.69;56.63
7966;BME280;4028;43.272;26.932;2023-02-18T00:08:55;99604.09;;;9.62;56.96
7966;BME280;4028;43.272;26.932;2023-02-18T00:11:23;99586.78;;;9.58;56.75
7966;BME280;4028;43.272;26.932;2023-02-18T00:13:53;99586.03;;;9.68;56.84
7966;BME280;4028;43.272;26.932;2023-02-18T00:16:20;99584.16;;;9.79;55.98
7966;BME280;4028;43.272;26.932;2023-02-18T00:18:46;99576.69;;;9.63;56.56
7966;BME280;4028;43.272;26.932;2023-02-18T00:21:12;99553.97;;;9.40;56.76
7966;BME280;4028;43.272;26.932;2023-02-18T00:23:38;99581.38;;;9.60;57.23
7966;BME280;4028;43.272;26.932;2023-02-18T00:26:06;99577.75;;;9.61;56.49
7966;BME280;4028;43.272;26.932;2023-02-18T00:28:32;99575.50;;;9.56;57.04
7966;BME280;4028;43.272;26.932;2023-02-18T00:30:57;99569.50;;;9.54;56.68
7966;BME280;4028;43.272;26.932;2023-02-18T00:33:23;99565.94;;;9.44;57.21
7966;BME280;4028;43.272;26.932;2023-02-18T00:35:48;99568.47;;;9.46;57.00
7966;BME280;4028;43.272;26.932;2023-02-18T00:38:14;99565.94;;;9.44;57.16
7966;BME280;4028;43.272;26.932;2023-02-18T00:40:40;99568.59;;;9.44;57.18
7966;BME280;4028;43.272;26.932;2023-02-18T00:43:06;99571.63;;;9.40;57.64
7966;BME280;4028;43.272;26.932;2023-02-18T00:45:32;99574.50;;;9.36;57.40
7966;BME280;4028;43.272;26.932;2023-02-18T00:47:57;99581.38;;;9.28;58.13
7966;BME280;4028;43.272;26.932;2023-02-18T00:50:23;99579.03;;;9.46;56.99
7966;BME280;4028;43.272;26.932;2023-02-18T00:52:48;99575.69;;;9.44;57.04
7966;BME280;4028;43.272;26.932;2023-02-18T00:55:14;99544.66;;;9.25;57.25
7966;BME280;4028;43.272;26.932;2023-02-18T00:57:39;99551.38;;;9.29;57.16
7966;BME280;4028;43.272;26.932;2023-02-18T01:00:06;99559.75;;;9.34;57.57
7966;BME280;4028;43.272;26.932;2023-02-18T01:02:32;99554.59;;;9.32;57.44
7966;BME280;4028;43.272;26.932;2023-02-18T01:04:58;99557.63;;;9.28;58.10
7966;BME280;4028;43.272;26.932;2023-02-18T01:07:24;99552.13;;;9.20;58.16
7966;BME280;4028;43.272;26.932;2023-02-18T01:09:49;99553.31;;;9.16;58.39
7966;BME280;4028;43.272;26.932;2023-02-18T01:12:15;99539.19;;;9.05;58.43
7966;BME280;4028;43.272;26.932;2023-02-18T01:14:40;99528.63;;;9.05;58.31
7966;BME280;4028;43.272;26.932;2023-02-18T01:17:07;99518.81;;;9.07;58.32
7966;BME280;4028;43.272;26.932;2023-02-18T01:19:33;99518.38;;;9.23;57.52
7966;BME280;4028;43.272;26.932;2023-02-18T01:21:59;99521.91;;;9.13;57.90
7966;BME280;4028;43.272;26.932;2023-02-18T01:24:24;99523.06;;;9.20;57.52
7966;BME280;4028;43.272;26.932;2023-02-18T01:26:49;99516.81;;;9.21;57.05
7966;BME280;4028;43.272;26.932;2023-02-18T01:29:15;99529.41;;;9.28;56.46
7966;BME280;4028;43.272;26.932;2023-02-18T01:31:40;99507.19;;;9.31;56.30
7966;BME280;4028;43.272;26.932;2023-02-18T01:34:06;99528.66;;;9.37;56.23
7966;BME280;4028;43.272;26.932;2023-02-18T01:36:31;99522.53;;;9.37;56.27
7966;BME280;4028;43.272;26.932;2023-02-18T01:38:57;99515.81;;;9.33;56.31
7966;BME280;4028;43.272;26.932;2023-02-18T01:41:22;99514.03;;;9.33;55.82
7966;BME280;4028;43.272;26.932;2023-02-18T01:43:48;99516.84;;;9.42;55.49
7966;BME280;4028;43.272;26.932;2023-02-18T01:46:20;99507.06;;;9.32;55.81
7966;BME280;4028;43.272;26.932;2023-02-18T01:48:57;99517.16;;;9.27;56.02
7966;BME280;4028;43.272;26.932;2023-02-18T01:51:28;99498.34;;;9.21;56.17
7966;BME280;4028;43.272;26.932;2023-02-18T01:54:02;99512.59;;;9.29;56.19
7966;BME280;4028;43.272;26.932;2023-02-18T01:59:07;99516.91;;;9.30;56.15
7966;BME280;4028;43.272;26.932;2023-02-18T02:01:34;99509.44;;;9.35;55.75
7966;BME280;4028;43.272;26.932;2023-02-18T02:04:00;99519.44;;;9.32;55.84
7966;BME280;4028;43.272;26.932;2023-02-18T02:06:26;99518.84;;;9.28;55.83
7966;BME280;4028;43.272;26.932;2023-02-18T02:08:58;99510.47;;;9.23;56.01
7966;BME280;4028;43.272;26.932;2023-02-18T02:14:44;99516.72;;;9.22;55.74
7966;BME280;4028;43.272;26.932;2023-02-18T02:36:36;99471.91;;;9.00;56.53
7966;BME280;4028;43.272;26.932;2023-02-18T02:39:44;99493.94;;;9.10;56.13
7966;BME280;4028;43.272;26.932;2023-02-18T02:44:56;99490.47;;;9.09;55.92
7966;BME280;4028;43.272;26.932;2023-02-18T02:47:38;99489.50;;;9.10;56.03
7966;BME280;4028;43.272;26.932;2023-02-18T02:50:25;99458.75;;;8.89;55.61
7966;BME280;4028;43.272;26.932;2023-02-18T02:52:57;99482.16;;;9.14;55.75
7966;BME280;4028;43.272;26.932;2023-02-18T02:55:23;99495.47;;;9.24;55.08
7966;BME280;4028;43.272;26.932;2023-02-18T02:57:51;99499.06;;;9.23;55.38
7966;BME280;4028;43.272;26.932;2023-02-18T03:03:13;99497.47;;;8.99;56.86
7966;BME280;4028;43.272;26.932;2023-02-18T03:06:31;99495.09;;;8.85;57.59
7966;BME280;4028;43.272;26.932;2023-02-18T03:09:22;99488.41;;;8.81;58.46
7966;BME280;4028;43.272;26.932;2023-02-18T03:12:29;99484.84;;;8.71;58.56
7966;BME280;4028;43.272;26.932;2023-02-18T03:17:58;99486.06;;;8.55;59.75
7966;BME280;4028;43.272;26.932;2023-02-18T03:20:28;99484.53;;;8.42;59.80
7966;BME280;4028;43.272;26.932;2023-02-18T03:22:57;99481.75;;;8.32;60.38
7966;BME280;4028;43.272;26.932;2023-02-18T03:25:24;99483.41;;;8.33;59.92
7966;BME280;4028;43.272;26.932;2023-02-18T03:28:08;99473.72;;;8.33;59.12
7966;BME280;4028;43.272;26.932;2023-02-18T03:33:06;99475.38;;;8.68;57.09
7966;BME280;4028;43.272;26.932;2023-02-18T03:35:35;99471.38;;;8.74;56.33
7966;BME280;4028;43.272;26.932;2023-02-18T03:40:45;99462.25;;;9.10;54.72
7966;BME280;4028;43.272;26.932;2023-02-18T03:43:11;99458.69;;;9.11;54.29
7966;BME280;4028;43.272;26.932;2023-02-18T03:45:36;99464.53;;;9.15;54.28
7966;BME280;4028;43.272;26.932;2023-02-18T03:48:02;99462.84;;;9.14;53.93
7966;BME280;4028;43.272;26.932;2023-02-18T03:50:27;99472.44;;;9.15;54.40
7966;BME280;4028;43.272;26.932;2023-02-18T03:52:53;99462.47;;;9.18;54.12
7966;BME280;4028;43.272;26.932;2023-02-18T03:55:18;99464.59;;;9.24;53.29
7966;BME280;4028;43.272;26.932;2023-02-18T03:57:44;99449.34;;;9.28;53.09
7966;BME280;4028;43.272;26.932;2023-02-18T04:00:09;99455.72;;;9.46;52.68
7966;BME280;4028;43.272;26.932;2023-02-18T04:02:36;99453.66;;;9.50;52.81
7966;BME280;4028;43.272;26.932;2023-02-18T04:05:01;99445.16;;;9.46;52.97
7966;BME280;4028;43.272;26.932;2023-02-18T04:07:27;99448.97;;;9.53;52.45
7966;BME280;4028;43.272;26.932;2023-02-18T04:09:52;99440.75;;;9.56;52.58
7966;BME280;4028;43.272;26.932;2023-02-18T04:12:18;99442.00;;;9.52;52.45
7966;BME280;4028;43.272;26.932;2023-02-18T04:14:43;99431.09;;;9.46;52.34
7966;BME280;4028;43.272;26.932;2023-02-18T04:17:09;99436.91;;;9.60;52.34
7966;BME280;4028;43.272;26.932;2023-02-18T04:19:34;99439.53;;;9.60;51.92
7966;BME280;4028;43.272;26.932;2023-02-18T04:22:00;99435.63;;;9.55;51.90
7966;BME280;4028;43.272;26.932;2023-02-18T04:24:26;99415.53;;;9.43;51.71
7966;BME280;4028;43.272;26.932;2023-02-18T04:26:51;99426.78;;;9.66;51.90
7966;BME280;4028;43.272;26.932;2023-02-18T04:29:17;99420.78;;;9.63;51.69
7966;BME280;4028;43.272;26.932;2023-02-18T04:31:42;99412.47;;;9.68;51.62
7966;BME280;4028;43.272;26.932;2023-02-18T04:34:08;99413.22;;;9.80;51.50
7966;BME280;4028;43.272;26.932;2023-02-18T04:36:33;99401.81;;;9.79;50.88
7966;BME280;4028;43.272;26.932;2023-02-18T04:38:58;99399.75;;;9.83;50.70
7966;BME280;4028;43.272;26.932;2023-02-18T04:41:24;99400.44;;;9.85;51.01
7966;BME280;4028;43.272;26.932;2023-02-18T04:43:50;99408.72;;;9.71;51.07
7966;BME280;4028;43.272;26.932;2023-02-18T04:46:15;99408.59;;;9.72;51.27
7966;BME280;4028;43.272;26.932;2023-02-18T04:48:41;99397.94;;;9.83;50.64
7966;BME280;4028;43.272;26.932;2023-02-18T04:51:06;99399.91;;;9.91;50.32
7966;BME280;4028;43.272;26.932;2023-02-18T04:53:32;99389.19;;;9.83;50.29
7966;BME280;4028;43.272;26.932;2023-02-18T04:55:58;99382.63;;;9.87;50.36
7966;BME280;4028;43.272;26.932;2023-02-18T04:58:23;99379.59;;;9.92;50.32
7966;BME280;4028;43.272;26.932;2023-02-18T05:00:49;99381.00;;;9.96;49.84
7966;BME280;4028;43.272;26.932;2023-02-18T05:03:15;99370.72;;;10.02;49.42
7966;BME280;4028;43.272;26.932;2023-02-18T05:05:41;99377.84;;;10.11;48.80
7966;BME280;4028;43.272;26.932;2023-02-18T05:08:07;99353.66;;;10.16;48.43
7966;BME280;4028;43.272;26.932;2023-02-18T05:10:33;99376.91;;;10.22;48.12
7966;BME280;4028;43.272;26.932;2023-02-18T05:12:59;99381.97;;;10.25;48.14
7966;BME280;4028;43.272;26.932;2023-02-18T05:15:25;99375.44;;;10.29;47.81
7966;BME280;4028;43.272;26.932;2023-02-18T05:17:50;99375.88;;;10.44;47.09
7966;BME280;4028;43.272;26.932;2023-02-18T05:20:16;99371.97;;;10.48;46.80
7966;BME280;4028;43.272;26.932;2023-02-18T05:22:41;99378.66;;;10.52;46.46
7966;BME280;4028;43.272;26.932;2023-02-18T05:25:07;99380.47;;;10.52;46.42
7966;BME280;4028;43.272;26.932;2023-02-18T05:27:33;99380.63;;;10.60;46.18
7966;BME280;4028;43.272;26.932;2023-02-18T05:29:58;99386.06;;;10.68;46.02
7966;BME280;4028;43.272;26.932;2023-02-18T05:32:24;99396.22;;;10.73;45.61
7966;BME280;4028;43.272;26.932;2023-02-18T05:34:49;99373.66;;;10.78;44.98
7966;BME280;4028;43.272;26.932;2023-02-18T05:37:15;99380.06;;;10.85;45.24
7966;BME280;4028;43.272;26.932;2023-02-18T05:39:43;99372.25;;;10.93;44.94
7966;BME280;4028;43.272;26.932;2023-02-18T05:42:09;99369.03;;;11.00;44.60
7966;BME280;4028;43.272;26.932;2023-02-18T05:44:35;99352.47;;;10.78;44.44
7966;BME280;4028;43.272;26.932;2023-02-18T05:47:07;99375.88;;;10.92;44.71
7966;BME280;4028;43.272;26.932;2023-02-18T05:49:34;99375.31;;;10.99;44.68
7966;BME280;4028;43.272;26.932;2023-02-18T05:52:00;99365.41;;;11.10;44.21
7966;BME280;4028;43.272;26.932;2023-02-18T05:54:26;99360.97;;;11.11;43.84
7966;BME280;4028;43.272;26.932;2023-02-18T05:56:52;99357.75;;;11.17;43.69
7966;BME280;4028;43.272;26.932;2023-02-18T05:59:18;99362.63;;;11.22;43.42
7966;BME280;4028;43.272;26.932;2023-02-18T06:01:44;99350.72;;;11.35;43.34
7966;BME280;4028;43.272;26.932;2023-02-18T06:04:10;99351.81;;;11.42;42.80
7966;BME280;4028;43.272;26.932;2023-02-18T06:06:35;99338.16;;;11.47;42.63
7966;BME280;4028;43.272;26.932;2023-02-18T06:09:02;99351.38;;;11.57;42.50
7966;BME280;4028;43.272;26.932;2023-02-18T06:11:28;99344.94;;;11.59;42.24
7966;BME280;4028;43.272;26.932;2023-02-18T06:13:53;99353.44;;;11.63;42.64
7966;BME280;4028;43.272;26.932;2023-02-18T06:16:19;99347.56;;;11.59;42.33
7966;BME280;4028;43.272;26.932;2023-02-18T06:18:44;99361.06;;;11.66;42.10
7966;BME280;4028;43.272;26.932;2023-02-18T06:21:10;99367.59;;;11.71;42.15
7966;BME280;4028;43.272;26.932;2023-02-18T06:23:35;99347.25;;;11.72;41.95
7966;BME280;4028;43.272;26.932;2023-02-18T06:26:01;99360.88;;;11.87;41.73
7966;BME280;4028;43.272;26.932;2023-02-18T06:28:26;99361.69;;;11.87;42.10
7966;BME280;4028;43.272;26.932;2023-02-18T06:30:52;99355.13;;;11.91;41.92
7966;BME280;4028;43.272;26.932;2023-02-18T06:33:18;99349.75;;;11.83;41.64
7966;BME280;4028;43.272;26.932;2023-02-18T06:35:55;99347.63;;;11.87;41.60
7966;BME280;4028;43.272;26.932;2023-02-18T06:38:21;99319.16;;;11.79;41.87
7966;BME280;4028;43.272;26.932;2023-02-18T06:40:47;99348.13;;;12.00;41.91
7966;BME280;4028;43.272;26.932;2023-02-18T06:43:13;99336.47;;;12.11;41.72
7966;BME280;4028;43.272;26.932;2023-02-18T06:45:38;99337.66;;;11.99;41.78
7966;BME280;4028;43.272;26.932;2023-02-18T06:48:04;99337.31;;;12.11;41.48
7966;BME280;4028;43.272;26.932;2023-02-18T06:50:30;99339.50;;;12.16;41.57
7966;BME280;4028;43.272;26.932;2023-02-18T06:52:55;99321.22;;;12.13;41.40
7966;BME280;4028;43.272;26.932;2023-02-18T06:55:21;99333.16;;;12.27;41.34
7966;BME280;4028;43.272;26.932;2023-02-18T06:57:46;99335.81;;;12.27;41.21
7966;BME280;4028;43.272;26.932;2023-02-18T07:00:12;99341.88;;;12.37;41.21
7966;BME280;4028;43.272;26.932;2023-02-18T07:02:38;99342.81;;;12.45;41.08
7966;BME280;4028;43.272;26.932;2023-02-18T07:05:04;99334.91;;;12.54;40.93
7966;BME280;4028;43.272;26.932;2023-02-18T07:07:29;99332.88;;;12.47;40.98
7966;BME280;4028;43.272;26.932;2023-02-18T07:09:55;99346.28;;;12.46;41.40
7966;BME280;4028;43.272;26.932;2023-02-18T07:12:20;99336.28;;;12.58;41.20
7966;BME280;4028;43.272;26.932;2023-02-18T07:14:46;99343.41;;;12.57;41.18
7966;BME280;4028;43.272;26.932;2023-02-18T07:17:12;99337.72;;;12.70;41.02
7966;BME280;4028;43.272;26.932;2023-02-18T07:19:38;99340.16;;;12.81;40.60
7966;BME280;4028;43.272;26.932;2023-02-18T07:22:03;99349.25;;;12.79;40.68
7966;BME280;4028;43.272;26.932;2023-02-18T07:24:29;99336.63;;;12.98;40.40
7966;BME280;4028;43.272;26.932;2023-02-18T07:26:54;99329.19;;;13.02;40.28
7966;BME280;4028;43.272;26.932;2023-02-18T07:29:20;99335.94;;;12.96;40.35
7966;BME280;4028;43.272;26.932;2023-02-18T07:31:45;99332.59;;;12.94;40.50
7966;BME280;4028;43.272;26.932;2023-02-18T07:34:11;99328.66;;;12.98;40.56
7966;BME280;4028;43.272;26.932;2023-02-18T07:36:36;99320.56;;;13.00;40.49
7966;BME280;4028;43.272;26.932;2023-02-18T07:39:02;99323.88;;;13.02;40.42
7966;BME280;4028;43.272;26.932;2023-02-18T07:41:28;99321.41;;;13.09;40.31
7966;BME280;4028;43.272;26.932;2023-02-18T07:43:53;99327.81;;;13.16;40.49
7966;BME280;4028;43.272;26.932;2023-02-18T07:46:19;99333.13;;;13.16;40.35
7966;BME280;4028;43.272;26.932;2023-02-18T07:48:44;99325.22;;;13.24;40.31
7966;BME280;4028;43.272;26.932;2023-02-18T07:51:11;99334.38;;;13.30;40.31
7966;BME280;4028;43.272;26.932;2023-02-18T07:53:38;99333.88;;;13.26;40.23
7966;BME280;4028;43.272;26.932;2023-02-18T07:56:04;99330.13;;;13.37;40.38
7966;BME280;4028;43.272;26.932;2023-02-18T07:58:33;99334.28;;;13.39;40.40
7966;BME280;4028;43.272;26.932;2023-02-18T08:01:02;99328.50;;;13.44;40.00
7966;BME280;4028;43.272;26.932;2023-02-18T08:03:30;99334.34;;;13.56;40.14
7966;BME280;4028;43.272;26.932;2023-02-18T08:05:57;99326.06;;;13.59;40.18
7966;BME280;4028;43.272;26.932;2023-02-18T08:08:25;99335.91;;;13.66;40.01
7966;BME280;4028;43.272;26.932;2023-02-18T08:10:53;99338.78;;;13.73;40.12
7966;BME280;4028;43.272;26.932;2023-02-18T08:13:19;99342.78;;;13.77;39.96
7966;BME280;4028;43.272;26.932;2023-02-18T08:15:44;99305.13;;;13.56;40.48
7966;BME280;4028;43.272;26.932;2023-02-18T08:18:18;99344.56;;;13.68;40.67
7966;BME280;4028;43.272;26.932;2023-02-18T08:20:45;99341.09;;;13.68;40.59
7966;BME280;4028;43.272;26.932;2023-02-18T08:23:18;99320.47;;;13.70;40.70
7966;BME280;4028;43.272;26.932;2023-02-18T08:25:53;99326.53;;;13.88;40.68
7966;BME280;4028;43.272;26.932;2023-02-18T08:28:21;99329.22;;;13.88;40.64
7966;BME280;4028;43.272;26.932;2023-02-18T08:30:50;99326.06;;;13.93;40.51
7966;BME280;4028;43.272;26.932;2023-02-18T08:33:17;99315.06;;;13.88;39.48
7966;BME280;4028;43.272;26.932;2023-02-18T08:35:44;99314.59;;;14.00;39.49
7966;BME280;4028;43.272;26.932;2023-02-18T08:38:10;99318.44;;;14.06;39.47
7966;BME280;4028;43.272;26.932;2023-02-18T08:40:35;99306.34;;;14.20;39.19
7966;BME280;4028;43.272;26.932;2023-02-18T08:43:01;99312.53;;;14.37;38.98
7966;BME280;4028;43.272;26.932;2023-02-18T08:45:28;99295.78;;;14.52;38.44
7966;BME280;4028;43.272;26.932;2023-02-18T08:47:54;99297.09;;;14.73;38.09
7966;BME280;4028;43.272;26.932;2023-02-18T08:50:44;99286.44;;;14.89;38.09
7966;BME280;4028;43.272;26.932;2023-02-18T08:56:57;99297.28;;;14.96;37.79
7966;BME280;4028;43.272;26.932;2023-02-18T08:59:49;99291.91;;;15.20;37.31
7966;BME280;4028;43.272;26.932;2023-02-18T09:02:33;99283.22;;;15.26;36.99
7966;BME280;4028;43.272;26.932;2023-02-18T09:05:22;99264.44;;;15.59;36.93
7966;BME280;4028;43.272;26.932;2023-02-18T09:08:15;99284.28;;;15.73;36.30
7966;BME280;4028;43.272;26.932;2023-02-18T09:10:43;99256.94;;;15.63;36.48
7966;BME280;4028;43.272;26.932;2023-02-18T09:13:11;99256.63;;;15.66;36.49
7966;BME280;4028;43.272;26.932;2023-02-18T09:15:37;99260.59;;;15.70;36.64
7966;BME280;4028;43.272;26.932;2023-02-18T09:18:03;99230.75;;;15.74;36.68
7966;BME280;4028;43.272;26.932;2023-02-18T09:20:28;99281.56;;;15.81;36.92
7966;BME280;4028;43.272;26.932;2023-02-18T09:22:53;99254.19;;;15.87;36.70
7966;BME280;4028;43.272;26.932;2023-02-18T09:25:19;99238.84;;;15.89;36.99
7966;BME280;4028;43.272;26.932;2023-02-18T09:27:44;99238.19;;;15.87;37.06
7966;BME280;4028;43.272;26.932;2023-02-18T09:30:10;99234.53;;;15.80;37.39
7966;BME280;4028;43.272;26.932;2023-02-18T09:32:36;99250.41;;;15.73;37.98
7966;BME280;4028;43.272;26.932;2023-02-18T09:35:03;99246.09;;;15.72;38.19
7966;BME280;4028;43.272;26.932;2023-02-18T09:37:28;99248.75;;;15.72;38.33
7966;BME280;4028;43.272;26.932;2023-02-18T09:39:54;99244.28;;;15.65;38.60
7966;BME280;4028;43.272;26.932;2023-02-18T09:42:23;99245.94;;;15.66;39.08
7966;BME280;4028;43.272;26.932;2023-02-18T09:44:54;99258.31;;;15.67;39.19
7966;BME280;4028;43.272;26.932;2023-02-18T09:50:10;99259.13;;;15.67;39.51
7966;BME280;4028;43.272;26.932;2023-02-18T09:52:38;99267.28;;;15.66;40.08
7966;BME280;4028;43.272;26.932;2023-02-18T09:55:31;99261.41;;;15.78;40.16
7966;BME280;4028;43.272;26.932;2023-02-18T09:58:13;99268.69;;;15.84;40.59
7966;BME280;4028;43.272;26.932;2023-02-18T10:00:45;99254.53;;;15.84;41.05
7966;BME280;4028;43.272;26.932;2023-02-18T10:03:18;99248.25;;;15.77;41.31
7966;BME280;4028;43.272;26.932;2023-02-18T10:06:06;99255.53;;;15.83;41.64
7966;BME280;4028;43.272;26.932;2023-02-18T10:08:35;99257.22;;;15.76;41.43
7966;BME280;4028;43.272;26.932;2023-02-18T10:11:02;99252.50;;;15.86;41.60
7966;BME280;4028;43.272;26.932;2023-02-18T10:13:31;99247.31;;;15.93;41.73
7966;BME280;4028;43.272;26.932;2023-02-18T10:15:57;99260.47;;;15.94;41.56
7966;BME280;4028;43.272;26.932;2023-02-18T10:18:53;99259.56;;;16.10;41.12
7966;BME280;4028;43.272;26.932;2023-02-18T10:21:24;99248.66;;;16.20;40.86
7966;BME280;4028;43.272;26.932;2023-02-18T10:24:00;99241.81;;;16.17;40.69
7966;BME280;4028;43.272;26.932;2023-02-18T10:26:29;99243.66;;;16.17;40.71
7966;BME280;4028;43.272;26.932;2023-02-18T10:28:56;99247.41;;;16.07;40.76
7966;BME280;4028;43.272;26.932;2023-02-18T10:31:33;99243.31;;;16.20;40.80
7966;BME280;4028;43.272;26.932;2023-02-18T10:36:57;99235.00;;;16.15;40.81
7966;BME280;4028;43.272;26.932;2023-02-18T10:50:41;99217.78;;;16.40;40.41
7966;BME280;4028;43.272;26.932;2023-02-18T10:53:38;99225.75;;;16.25;40.95
7966;BME280;4028;43.272;26.932;2023-02-18T10:56:05;99218.38;;;16.27;41.24
7966;BME280;4028;43.272;26.932;2023-02-18T10:58:46;99220.16;;;16.35;41.39
7966;BME280;4028;43.272;26.932;2023-02-18T11:01:20;99211.47;;;16.18;41.30
7966;BME280;4028;43.272;26.932;2023-02-18T11:06:24;99198.31;;;16.31;41.31
7966;BME280;4028;43.272;26.932;2023-02-18T11:08:52;99198.56;;;16.45;41.17
7966;BME280;4028;43.272;26.932;2023-02-18T11:11:23;99197.16;;;16.34;41.39
7966;BME280;4028;43.272;26.932;2023-02-18T11:13:54;99202.78;;;16.39;41.41
7966;BME280;4028;43.272;26.932;2023-02-18T11:16:22;99202.00;;;16.68;41.28
7966;BME280;4028;43.272;26.932;2023-02-18T11:18:48;99202.91;;;16.98;40.68
7966;BME280;4028;43.272;26.932;2023-02-18T11:21:33;99197.47;;;17.36;40.50
7966;BME280;4028;43.272;26.932;2023-02-18T11:24:08;99189.44;;;17.51;40.30
7966;BME280;4028;43.272;26.932;2023-02-18T11:26:35;99205.84;;;17.48;40.58
7966;BME280;4028;43.272;26.932;2023-02-18T11:31:42;99199.06;;;17.30;40.87
7966;BME280;4028;43.272;26.932;2023-02-18T11:34:18;99200.31;;;17.20;40.95
7966;BME280;4028;43.272;26.932;2023-02-18T11:36:44;99197.91;;;17.25;41.13
7966;BME280;4028;43.272;26.932;2023-02-18T11:41:46;99200.97;;;17.22;41.22
7966;BME280;4028;43.272;26.932;2023-02-18T11:47:04;99180.66;;;17.57;40.36
7966;BME280;4028;43.272;26.932;2023-02-18T11:49:31;99185.44;;;17.76;40.22
7966;BME280;4028;43.272;26.932;2023-02-18T11:52:17;99169.09;;;18.07;39.84
7966;BME280;4028;43.272;26.932;2023-02-18T11:55:02;99174.53;;;18.21;39.98
7966;BME280;4028;43.272;26.932;2023-02-18T11:57:30;99162.63;;;18.23;40.09
7966;BME280;4028;43.272;26.932;2023-02-18T11:59:57;99162.44;;;18.03;40.68
7966;BME280;4028;43.272;26.932;2023-02-18T12:02:30;99163.19;;;17.76;41.26
7966;BME280;4028;43.272;26.932;2023-02-18T12:05:04;99145.22;;;17.55;41.92
7966;BME280;4028;43.272;26.932;2023-02-18T12:10:57;99130.25;;;17.09;42.84
7966;BME280;4028;43.272;26.932;2023-02-18T12:13:23;99124.06;;;17.24;43.18
7966;BME280;4028;43.272;26.932;2023-02-18T12:27:28;99121.91;;;16.98;44.87
7966;BME280;4028;43.272;26.932;2023-02-18T12:41:54;99122.34;;;17.16;45.08
7966;BME280;4028;43.272;26.932;2023-02-18T13:05:56;99118.81;;;16.56;47.48
7966;BME280;4028;43.272;26.932;2023-02-18T13:08:42;99119.75;;;16.49;47.67
7966;BME280;4028;43.272;26.932;2023-02-18T13:14:17;99130.44;;;16.49;48.01
7966;BME280;4028;43.272;26.932;2023-02-18T13:16:47;99115.47;;;16.25;48.07
7966;BME280;4028;43.272;26.932;2023-02-18T13:19:28;99124.63;;;16.22;48.49
7966;BME280;4028;43.272;26.932;2023-02-18T13:21:59;99124.06;;;16.12;48.45
7966;BME280;4028;43.272;26.932;2023-02-18T13:24:31;99121.41;;;16.12;48.73
7966;BME280;4028;43.272;26.932;2023-02-18T13:27:07;99125.28;;;16.09;48.78
7966;BME280;4028;43.272;26.932;2023-02-18T13:30:00;99082.00;;;15.76;48.58
7966;BME280;4028;43.272;26.932;2023-02-18T13:32:29;99119.41;;;16.14;49.01
7966;BME280;4028;43.272;26.932;2023-02-18T13:40:21;99122.34;;;16.19;49.05
7966;BME280;4028;43.272;26.932;2023-02-18T13:42:53;99124.25;;;16.10;49.12
7966;BME280;4028;43.272;26.932;2023-02-18T13:45:30;99121.81;;;16.01;49.56
7966;BME280;4028;43.272;26.932;2023-02-18T13:47:56;99129.69;;;16.02;49.57
7966;BME280;4028;43.272;26.932;2023-02-18T13:50:26;99129.59;;;16.10;49.77
7966;BME280;4028;43.272;26.932;2023-02-18T13:55:40;99102.03;;;15.95;49.49
7966;BME280;4028;43.272;26.932;2023-02-18T13:58:23;99127.16;;;16.01;49.80
7966;BME280;4028;43.272;26.932;2023-02-18T14:00:53;99119.44;;;16.06;49.81
7966;BME280;4028;43.272;26.932;2023-02-18T14:05:55;99103.28;;;16.07;49.67
7966;BME280;4028;43.272;26.932;2023-02-18T14:08:35;99115.19;;;15.97;50.03
7966;BME280;4028;43.272;26.932;2023-02-18T14:13:46;99119.09;;;15.86;49.98
7966;BME280;4028;43.272;26.932;2023-02-18T14:16:14;99120.72;;;15.72;50.43
7966;BME280;4028;43.272;26.932;2023-02-18T14:47:50;99117.03;;;15.42;52.60
7966;BME280;4028;43.272;26.932;2023-02-18T14:50:20;99121.19;;;15.45;52.63
7966;BME280;4028;43.272;26.932;2023-02-18T14:52:53;99122.38;;;15.42;52.56
7966;BME280;4028;43.272;26.932;2023-02-18T14:55:28;99110.72;;;15.35;52.61
7966;BME280;4028;43.272;26.932;2023-02-18T14:58:02;99115.59;;;15.31;53.03
7966;BME280;4028;43.272;26.932;2023-02-18T15:00:34;99106.78;;;15.31;53.10
7966;BME280;4028;43.272;26.932;2023-02-18T15:03:03;99117.59;;;15.29;53.30
7966;BME280;4028;43.272;26.932;2023-02-18T15:05:31;99098.09;;;15.29;53.24
7966;BME280;4028;43.272;26.932;2023-02-18T15:08:05;99113.78;;;15.24;53.50
7966;BME280;4028;43.272;26.932;2023-02-18T15:10:42;99112.72;;;15.10;53.86
7966;BME280;4028;43.272;26.932;2023-02-18T15:13:16;99108.56;;;15.07;53.99
7966;BME280;4028;43.272;26.932;2023-02-18T15:15:42;99098.19;;;15.13;54.06
7966;BME280;4028;43.272;26.932;2023-02-18T15:18:21;99098.94;;;14.98;54.41
7966;BME280;4028;43.272;26.932;2023-02-18T15:20:48;99108.72;;;15.06;54.47
7966;BME280;4028;43.272;26.932;2023-02-18T15:23:15;99101.16;;;14.87;55.13
7966;BME280;4028;43.272;26.932;2023-02-18T15:25:45;99085.34;;;14.85;55.38
7966;BME280;4028;43.272;26.932;2023-02-18T15:28:26;99096.13;;;14.92;55.30
7966;BME280;4028;43.272;26.932;2023-02-18T15:30:52;99081.16;;;14.91;55.52
7966;BME280;4028;43.272;26.932;2023-02-18T15:33:19;99075.00;;;14.90;55.52
7966;BME280;4028;43.272;26.932;2023-02-18T15:35:45;99083.00;;;14.82;55.96
7966;BME280;4028;43.272;26.932;2023-02-18T15:38:19;99064.25;;;14.67;56.76
7966;BME280;4028;43.272;26.932;2023-02-18T15:40:52;99070.91;;;14.63;57.09
7966;BME280;4028;43.272;26.932;2023-02-18T15:43:23;99070.91;;;14.63;57.18
7966;BME280;4028;43.272;26.932;2023-02-18T15:45:55;99064.13;;;14.61;57.64
7966;BME280;4028;43.272;26.932;2023-02-18T15:48:45;99060.66;;;14.44;57.97
7966;BME280;4028;43.272;26.932;2023-02-18T15:51:13;99072.13;;;14.52;58.19
7966;BME280;4028;43.272;26.932;2023-02-18T15:53:42;99061.31;;;14.38;58.46
7966;BME280;4028;43.272;26.932;2023-02-18T15:56:10;99068.78;;;14.42;58.54
7966;BME280;4028;43.272;26.932;2023-02-18T15:58:39;99073.47;;;14.40;58.72
7966;BME280;4028;43.272;26.932;2023-02-18T16:01:06;99059.38;;;14.23;59.01
7966;BME280;4028;43.272;26.932;2023-02-18T16:08:35;99054.56;;;14.19;59.40
7966;BME280;4028;43.272;26.932;2023-02-18T16:11:07;99052.72;;;14.19;59.26
7966;BME280;4028;43.272;26.932;2023-02-18T16:13:36;99052.56;;;14.04;59.37
7966;BME280;4028;43.272;26.932;2023-02-18T16:16:28;99061.69;;;14.10;59.66